sensor_id;sensor_type;location;lat;lon;timestamp;P1;durP1;ratioP1;P2;durP2;ratioP2
9821;SDS011;4950;46.042;14.472;2022-08-19T00:00:34;7.15;;;3.70;;
9821;SDS011;4950;46.042;14.472;2022-08-19T00:03:01;6.90;;;3.70;;
9821;SDS011;4950;46.042;14.472;2022-08-19T00:05:27;8.88;;;3.80;;
9821;SDS011;4950;46.042;14.472;2022-08-19T00:07:54;4.72;;;3.33;;
9821;SDS011;4950;46.042;14.472;2022-08-19T00:10:22;10.63;;;3.78;;
9821;SDS011;4950;46.042;14.472;2022-08-19T00:12:49;8.70;;;3.97;;
9821;SDS011;4950;46.042;14.472;2022-08-19T00:15:17;6.25;;;3.80;;
9821;SDS011;4950;46.042;14.472;2022-08-19T00:17:46;4.88;;;3.63;;
9821;SDS011;4950;46.042;14.472;2022-08-19T00:20:15;7.03;;;3.42;;
9821;SDS011;4950;46.042;14.472;2022-08-19T00:22:44;8.73;;;3.70;;
9821;SDS011;4950;46.042;14.472;2022-08-19T00:25:13;6.70;;;3.53;;
9821;SDS011;4950;46.042;14.472;2022-08-19T00:27:41;6.35;;;3.40;;
9821;SDS011;4950;46.042;14.472;2022-08-19T00:30:08;7.88;;;3.38;;
9821;SDS011;4950;46.042;14.472;2022-08-19T00:32:36;8.07;;;4.05;;
9821;SDS011;4950;46.042;14.472;2022-08-19T00:35:04;5.65;;;3.40;;
9821;SDS011;4950;46.042;14.472;2022-08-19T00:37:31;6.20;;;3.22;;
9821;SDS011;4950;46.042;14.472;2022-08-19T00:39:59;7.78;;;4.10;;
9821;SDS011;4950;46.042;14.472;2022-08-19T00:42:27;7.88;;;3.92;;
9821;SDS011;4950;46.042;14.472;2022-08-19T00:44:55;6.63;;;3.50;;
9821;SDS011;4950;46.042;14.472;2022-08-19T00:47:22;6.18;;;3.90;;
9821;SDS011;4950;46.042;14.472;2022-08-19T00:49:50;6.30;;;3.63;;
9821;SDS011;4950;46.042;14.472;2022-08-19T00:52:19;7.90;;;3.83;;
9821;SDS011;4950;46.042;14.472;2022-08-19T00:54:49;6.60;;;3.40;;
9821;SDS011;4950;46.042;14.472;2022-08-19T00:57:18;7.70;;;3.88;;
9821;SDS011;4950;46.042;14.472;2022-08-19T00:59:48;6.30;;;3.90;;
9821;SDS011;4950;46.042;14.472;2022-08-19T01:02:20;4.80;;;3.35;;
9821;SDS011;4950;46.042;14.472;2022-08-19T01:04:46;6.85;;;3.63;;
9821;SDS011;4950;46.042;14.472;2022-08-19T01:07:13;5.75;;;3.85;;
9821;SDS011;4950;46.042;14.472;2022-08-19T01:09:39;8.13;;;4.13;;
9821;SDS011;4950;46.042;14.472;2022-08-19T01:12:06;7.65;;;3.60;;
9821;SDS011;4950;46.042;14.472;2022-08-19T01:14:34;7.97;;;3.95;;
9821;SDS011;4950;46.042;14.472;2022-08-19T01:17:02;6.63;;;3.88;;
9821;SDS011;4950;46.042;14.472;2022-08-19T01:19:33;5.85;;;3.67;;
9821;SDS011;4950;46.042;14.472;2022-08-19T01:22:03;8.50;;;4.10;;
9821;SDS011;4950;46.042;14.472;2022-08-19T01:24:39;10.13;;;4.07;;
9821;SDS011;4950;46.042;14.472;2022-08-19T01:27:06;7.38;;;4.30;;
9821;SDS011;4950;46.042;14.472;2022-08-19T01:29:34;5.68;;;3.90;;
9821;SDS011;4950;46.042;14.472;2022-08-19T01:32:03;4.80;;;3.83;;
9821;SDS011;4950;46.042;14.472;2022-08-19T01:34:31;8.45;;;4.13;;
9821;SDS011;4950;46.042;14.472;2022-08-19T01:36:59;5.97;;;4.32;;
9821;SDS011;4950;46.042;14.472;2022-08-19T01:39:31;5.45;;;4.13;;
9821;SDS011;4950;46.042;14.472;2022-08-19T01:41:59;6.43;;;4.85;;
9821;SDS011;4950;46.042;14.472;2022-08-19T01:44:28;7.53;;;4.45;;
9821;SDS011;4950;46.042;14.472;2022-08-19T01:46:55;8.73;;;5.15;;
9821;SDS011;4950;46.042;14.472;2022-08-19T01:49:23;8.90;;;5.13;;
9821;SDS011;4950;46.042;14.472;2022-08-19T01:51:51;8.65;;;4.63;;
9821;SDS011;4950;46.042;14.472;2022-08-19T01:54:20;8.25;;;5.03;;
9821;SDS011;4950;46.042;14.472;2022-08-19T01:56:48;6.88;;;4.53;;
9821;SDS011;4950;46.042;14.472;2022-08-19T01:59:18;6.93;;;4.85;;
9821;SDS011;4950;46.042;14.472;2022-08-19T02:01:48;8.52;;;4.90;;
9821;SDS011;4950;46.042;14.472;2022-08-19T02:04:14;8.68;;;5.10;;
9821;SDS011;4950;46.042;14.472;2022-08-19T02:06:41;7.35;;;4.65;;
9821;SDS011;4950;46.042;14.472;2022-08-19T02:09:08;6.63;;;4.68;;
9821;SDS011;4950;46.042;14.472;2022-08-19T02:11:36;5.53;;;4.18;;
9821;SDS011;4950;46.042;14.472;2022-08-19T02:14:05;9.40;;;4.00;;
9821;SDS011;4950;46.042;14.472;2022-08-19T02:16:35;8.77;;;4.25;;
9821;SDS011;4950;46.042;14.472;2022-08-19T02:19:02;8.80;;;3.92;;
9821;SDS011;4950;46.042;14.472;2022-08-19T02:21:29;7.50;;;3.90;;
9821;SDS011;4950;46.042;14.472;2022-08-19T02:23:56;10.32;;;3.72;;
9821;SDS011;4950;46.042;14.472;2022-08-19T02:26:24;5.97;;;3.13;;
9821;SDS011;4950;46.042;14.472;2022-08-19T02:28:52;7.40;;;2.90;;
9821;SDS011;4950;46.042;14.472;2022-08-19T02:31:20;5.68;;;3.10;;
9821;SDS011;4950;46.042;14.472;2022-08-19T02:33:50;7.22;;;2.85;;
9821;SDS011;4950;46.042;14.472;2022-08-19T02:36:17;6.53;;;2.47;;
9821;SDS011;4950;46.042;14.472;2022-08-19T02:38:44;5.70;;;2.20;;
9821;SDS011;4950;46.042;14.472;2022-08-19T02:41:11;4.20;;;2.08;;
9821;SDS011;4950;46.042;14.472;2022-08-19T02:43:40;5.88;;;2.10;;
9821;SDS011;4950;46.042;14.472;2022-08-19T02:46:14;5.20;;;2.10;;
9821;SDS011;4950;46.042;14.472;2022-08-19T02:48:43;5.00;;;1.80;;
9821;SDS011;4950;46.042;14.472;2022-08-19T02:51:16;6.32;;;2.10;;
9821;SDS011;4950;46.042;14.472;2022-08-19T02:53:44;7.15;;;2.25;;
9821;SDS011;4950;46.042;14.472;2022-08-19T02:56:10;5.32;;;2.30;;
9821;SDS011;4950;46.042;14.472;2022-08-19T02:58:37;4.90;;;1.95;;
9821;SDS011;4950;46.042;14.472;2022-08-19T03:01:04;5.57;;;2.10;;
9821;SDS011;4950;46.042;14.472;2022-08-19T03:03:30;6.45;;;2.17;;
9821;SDS011;4950;46.042;14.472;2022-08-19T03:06:07;5.40;;;2.30;;
9821;SDS011;4950;46.042;14.472;2022-08-19T03:08:37;5.53;;;2.55;;
9821;SDS011;4950;46.042;14.472;2022-08-19T03:11:05;6.45;;;2.10;;
9821;SDS011;4950;46.042;14.472;2022-08-19T03:13:32;4.63;;;2.20;;
9821;SDS011;4950;46.042;14.472;2022-08-19T03:15:58;5.70;;;2.05;;
9821;SDS011;4950;46.042;14.472;2022-08-19T03:18:25;4.55;;;1.80;;
9821;SDS011;4950;46.042;14.472;2022-08-19T03:20:52;4.13;;;1.98;;
9821;SDS011;4950;46.042;14.472;2022-08-19T03:23:19;5.55;;;1.60;;
9821;SDS011;4950;46.042;14.472;2022-08-19T03:25:49;2.42;;;1.38;;
9821;SDS011;4950;46.042;14.472;2022-08-19T03:28:17;4.22;;;1.70;;
9821;SDS011;4950;46.042;14.472;2022-08-19T03:30:54;4.85;;;1.73;;
9821;SDS011;4950;46.042;14.472;2022-08-19T03:33:22;3.35;;;1.92;;
9821;SDS011;4950;46.042;14.472;2022-08-19T03:35:58;3.88;;;1.98;;
9821;SDS011;4950;46.042;14.472;2022-08-19T03:38:26;5.70;;;1.80;;
9821;SDS011;4950;46.042;14.472;2022-08-19T03:40:54;3.53;;;1.85;;
9821;SDS011;4950;46.042;14.472;2022-08-19T03:43:21;4.90;;;2.00;;
9821;SDS011;4950;46.042;14.472;2022-08-19T03:45:47;4.63;;;1.95;;
9821;SDS011;4950;46.042;14.472;2022-08-19T03:48:14;6.00;;;2.17;;
9821;SDS011;4950;46.042;14.472;2022-08-19T03:50:41;4.07;;;2.25;;
9821;SDS011;4950;46.042;14.472;2022-08-19T03:53:08;3.83;;;2.10;;
9821;SDS011;4950;46.042;14.472;2022-08-19T03:55:38;5.78;;;1.88;;
9821;SDS011;4950;46.042;14.472;2022-08-19T03:58:07;5.10;;;2.30;;
9821;SDS011;4950;46.042;14.472;2022-08-19T04:00:33;4.10;;;2.20;;
9821;SDS011;4950;46.042;14.472;2022-08-19T04:03:00;6.25;;;2.65;;
9821;SDS011;4950;46.042;14.472;2022-08-19T04:05:27;8.30;;;2.67;;
9821;SDS011;4950;46.042;14.472;2022-08-19T04:07:54;7.30;;;3.00;;
9821;SDS011;4950;46.042;14.472;2022-08-19T04:10:23;4.32;;;2.30;;
9821;SDS011;4950;46.042;14.472;2022-08-19T04:12:50;5.82;;;2.80;;
9821;SDS011;4950;46.042;14.472;2022-08-19T04:15:18;6.38;;;2.55;;
9821;SDS011;4950;46.042;14.472;2022-08-19T04:17:45;8.80;;;2.63;;
9821;SDS011;4950;46.042;14.472;2022-08-19T04:20:11;7.68;;;2.65;;
9821;SDS011;4950;46.042;14.472;2022-08-19T04:22:38;4.63;;;2.38;;
9821;SDS011;4950;46.042;14.472;2022-08-19T04:25:05;4.30;;;2.22;;
9821;SDS011;4950;46.042;14.472;2022-08-19T04:27:32;5.03;;;2.60;;
9821;SDS011;4950;46.042;14.472;2022-08-19T04:29:59;5.50;;;2.50;;
9821;SDS011;4950;46.042;14.472;2022-08-19T04:32:27;7.93;;;3.00;;
9821;SDS011;4950;46.042;14.472;2022-08-19T04:34:53;7.43;;;2.78;;
9821;SDS011;4950;46.042;14.472;2022-08-19T04:37:23;6.25;;;2.58;;
9821;SDS011;4950;46.042;14.472;2022-08-19T04:39:51;5.45;;;2.80;;
9821;SDS011;4950;46.042;14.472;2022-08-19T04:42:36;7.82;;;2.90;;
9821;SDS011;4950;46.042;14.472;2022-08-19T04:45:06;5.65;;;2.45;;
9821;SDS011;4950;46.042;14.472;2022-08-19T04:47:36;6.57;;;3.13;;
9821;SDS011;4950;46.042;14.472;2022-08-19T04:50:03;4.13;;;2.30;;
9821;SDS011;4950;46.042;14.472;2022-08-19T04:52:30;5.97;;;2.30;;
9821;SDS011;4950;46.042;14.472;2022-08-19T04:54:57;3.55;;;2.70;;
9821;SDS011;4950;46.042;14.472;2022-08-19T04:57:24;5.03;;;2.78;;
9821;SDS011;4950;46.042;14.472;2022-08-19T04:59:53;4.03;;;2.42;;
9821;SDS011;4950;46.042;14.472;2022-08-19T05:02:20;6.43;;;2.47;;
9821;SDS011;4950;46.042;14.472;2022-08-19T05:04:51;3.95;;;2.22;;
9821;SDS011;4950;46.042;14.472;2022-08-19T05:07:22;10.60;;;2.63;;
9821;SDS011;4950;46.042;14.472;2022-08-19T05:09:48;5.78;;;2.50;;
9821;SDS011;4950;46.042;14.472;2022-08-19T05:12:15;8.32;;;2.67;;
9821;SDS011;4950;46.042;14.472;2022-08-19T05:14:42;5.10;;;2.47;;
9821;SDS011;4950;46.042;14.472;2022-08-19T05:17:10;5.32;;;2.28;;
9821;SDS011;4950;46.042;14.472;2022-08-19T05:19:37;6.00;;;2.50;;
9821;SDS011;4950;46.042;14.472;2022-08-19T05:22:22;4.82;;;2.58;;
9821;SDS011;4950;46.042;14.472;2022-08-19T05:25:05;6.28;;;2.65;;
9821;SDS011;4950;46.042;14.472;2022-08-19T05:27:35;4.72;;;2.63;;
9821;SDS011;4950;46.042;14.472;2022-08-19T05:30:02;7.28;;;2.60;;
9821;SDS011;4950;46.042;14.472;2022-08-19T05:32:30;5.80;;;2.60;;
9821;SDS011;4950;46.042;14.472;2022-08-19T05:34:57;5.03;;;2.15;;
9821;SDS011;4950;46.042;14.472;2022-08-19T05:37:25;5.25;;;2.15;;
9821;SDS011;4950;46.042;14.472;2022-08-19T05:39:52;5.80;;;2.25;;
9821;SDS011;4950;46.042;14.472;2022-08-19T05:42:20;4.70;;;2.33;;
9821;SDS011;4950;46.042;14.472;2022-08-19T05:44:48;4.60;;;2.05;;
9821;SDS011;4950;46.042;14.472;2022-08-19T05:47:16;6.18;;;2.97;;
9821;SDS011;4950;46.042;14.472;2022-08-19T05:49:44;5.93;;;2.80;;
9821;SDS011;4950;46.042;14.472;2022-08-19T05:52:11;5.43;;;2.72;;
9821;SDS011;4950;46.042;14.472;2022-08-19T05:54:43;3.83;;;2.58;;
9821;SDS011;4950;46.042;14.472;2022-08-19T05:57:12;8.20;;;2.72;;
9821;SDS011;4950;46.042;14.472;2022-08-19T05:59:39;4.15;;;2.40;;
9821;SDS011;4950;46.042;14.472;2022-08-19T06:02:06;5.15;;;2.40;;
9821;SDS011;4950;46.042;14.472;2022-08-19T06:04:33;5.95;;;2.28;;
9821;SDS011;4950;46.042;14.472;2022-08-19T06:07:00;4.93;;;2.42;;
9821;SDS011;4950;46.042;14.472;2022-08-19T06:09:27;5.43;;;2.33;;
9821;SDS011;4950;46.042;14.472;2022-08-19T06:11:56;6.47;;;3.03;;
9821;SDS011;4950;46.042;14.472;2022-08-19T06:14:25;4.70;;;2.50;;
9821;SDS011;4950;46.042;14.472;2022-08-19T06:16:54;4.80;;;2.10;;
9821;SDS011;4950;46.042;14.472;2022-08-19T06:19:22;4.95;;;2.38;;
9821;SDS011;4950;46.042;14.472;2022-08-19T06:21:50;7.13;;;2.72;;
9821;SDS011;4950;46.042;14.472;2022-08-19T06:24:19;5.13;;;2.53;;
9821;SDS011;4950;46.042;14.472;2022-08-19T06:26:49;4.15;;;2.53;;
9821;SDS011;4950;46.042;14.472;2022-08-19T06:29:20;5.93;;;3.00;;
9821;SDS011;4950;46.042;14.472;2022-08-19T06:31:50;7.10;;;2.55;;
9821;SDS011;4950;46.042;14.472;2022-08-19T06:34:18;5.93;;;2.78;;
9821;SDS011;4950;46.042;14.472;2022-08-19T06:36:46;8.45;;;3.00;;
9821;SDS011;4950;46.042;14.472;2022-08-19T06:39:15;5.10;;;2.92;;
9821;SDS011;4950;46.042;14.472;2022-08-19T06:41:45;10.15;;;3.17;;
9821;SDS011;4950;46.042;14.472;2022-08-19T06:44:13;7.25;;;2.42;;
9821;SDS011;4950;46.042;14.472;2022-08-19T06:46:41;5.55;;;2.40;;
9821;SDS011;4950;46.042;14.472;2022-08-19T06:49:08;7.22;;;2.80;;
9821;SDS011;4950;46.042;14.472;2022-08-19T06:51:38;5.10;;;2.42;;
9821;SDS011;4950;46.042;14.472;2022-08-19T06:54:06;4.15;;;2.38;;
9821;SDS011;4950;46.042;14.472;2022-08-19T06:56:33;6.22;;;2.83;;
9821;SDS011;4950;46.042;14.472;2022-08-19T06:59:00;6.13;;;2.55;;
9821;SDS011;4950;46.042;14.472;2022-08-19T07:01:27;9.10;;;3.05;;
9821;SDS011;4950;46.042;14.472;2022-08-19T07:03:55;7.82;;;2.53;;
9821;SDS011;4950;46.042;14.472;2022-08-19T07:06:22;8.18;;;2.95;;
9821;SDS011;4950;46.042;14.472;2022-08-19T07:08:49;7.72;;;2.75;;
9821;SDS011;4950;46.042;14.472;2022-08-19T07:11:17;7.65;;;2.70;;
9821;SDS011;4950;46.042;14.472;2022-08-19T07:13:45;4.63;;;2.50;;
9821;SDS011;4950;46.042;14.472;2022-08-19T07:16:14;9.23;;;2.92;;
9821;SDS011;4950;46.042;14.472;2022-08-19T07:18:44;7.70;;;2.90;;
9821;SDS011;4950;46.042;14.472;2022-08-19T07:21:13;7.10;;;2.80;;
9821;SDS011;4950;46.042;14.472;2022-08-19T07:23:41;5.78;;;2.63;;
9821;SDS011;4950;46.042;14.472;2022-08-19T07:26:10;3.97;;;2.53;;
9821;SDS011;4950;46.042;14.472;2022-08-19T07:28:39;7.18;;;3.40;;
9821;SDS011;4950;46.042;14.472;2022-08-19T07:31:06;7.32;;;2.78;;
9821;SDS011;4950;46.042;14.472;2022-08-19T07:33:33;6.47;;;3.03;;
9821;SDS011;4950;46.042;14.472;2022-08-19T07:36:02;5.47;;;2.45;;
9821;SDS011;4950;46.042;14.472;2022-08-19T07:38:31;7.88;;;3.03;;
9821;SDS011;4950;46.042;14.472;2022-08-19T07:40:58;6.57;;;2.83;;
9821;SDS011;4950;46.042;14.472;2022-08-19T07:43:25;7.22;;;2.97;;
9821;SDS011;4950;46.042;14.472;2022-08-19T07:45:52;4.65;;;2.75;;
9821;SDS011;4950;46.042;14.472;2022-08-19T07:48:21;6.10;;;3.10;;
9821;SDS011;4950;46.042;14.472;2022-08-19T07:50:50;5.55;;;2.58;;
9821;SDS011;4950;46.042;14.472;2022-08-19T07:53:16;6.65;;;2.80;;
9821;SDS011;4950;46.042;14.472;2022-08-19T07:55:45;6.70;;;2.97;;
9821;SDS011;4950;46.042;14.472;2022-08-19T07:58:13;6.72;;;2.53;;
9821;SDS011;4950;46.042;14.472;2022-08-19T08:00:43;6.65;;;2.53;;
9821;SDS011;4950;46.042;14.472;2022-08-19T08:03:11;4.70;;;2.92;;
9821;SDS011;4950;46.042;14.472;2022-08-19T08:05:37;6.30;;;2.58;;
9821;SDS011;4950;46.042;14.472;2022-08-19T08:08:24;4.63;;;2.50;;
9821;SDS011;4950;46.042;14.472;2022-08-19T08:11:10;5.63;;;2.70;;
9821;SDS011;4950;46.042;14.472;2022-08-19T08:13:37;5.20;;;2.53;;
9821;SDS011;4950;46.042;14.472;2022-08-19T08:16:06;6.88;;;2.72;;
9821;SDS011;4950;46.042;14.472;2022-08-19T08:18:33;4.90;;;2.58;;
9821;SDS011;4950;46.042;14.472;2022-08-19T08:21:06;3.60;;;2.38;;
9821;SDS011;4950;46.042;14.472;2022-08-19T08:23:33;5.63;;;2.47;;
9821;SDS011;4950;46.042;14.472;2022-08-19T08:26:00;8.13;;;2.88;;
9821;SDS011;4950;46.042;14.472;2022-08-19T08:28:31;2.78;;;2.20;;
9821;SDS011;4950;46.042;14.472;2022-08-19T08:30:57;5.93;;;3.00;;
9821;SDS011;4950;46.042;14.472;2022-08-19T08:33:26;5.35;;;2.38;;
9821;SDS011;4950;46.042;14.472;2022-08-19T08:35:55;7.78;;;2.75;;
9821;SDS011;4950;46.042;14.472;2022-08-19T08:38:22;7.90;;;2.40;;
9821;SDS011;4950;46.042;14.472;2022-08-19T08:40:49;6.70;;;2.92;;
9821;SDS011;4950;46.042;14.472;2022-08-19T08:43:22;6.28;;;2.60;;
9821;SDS011;4950;46.042;14.472;2022-08-19T08:45:55;6.65;;;3.10;;
9821;SDS011;4950;46.042;14.472;2022-08-19T08:48:30;4.22;;;2.17;;
9821;SDS011;4950;46.042;14.472;2022-08-19T08:51:04;5.63;;;2.60;;
9821;SDS011;4950;46.042;14.472;2022-08-19T08:53:33;5.78;;;2.80;;
9821;SDS011;4950;46.042;14.472;2022-08-19T08:56:02;9.30;;;2.58;;
9821;SDS011;4950;46.042;14.472;2022-08-19T08:58:31;5.00;;;2.33;;
9821;SDS011;4950;46.042;14.472;2022-08-19T09:01:11;7.97;;;2.38;;
9821;SDS011;4950;46.042;14.472;2022-08-19T09:03:39;6.10;;;2.90;;
9821;SDS011;4950;46.042;14.472;2022-08-19T09:06:11;5.05;;;2.53;;
9821;SDS011;4950;46.042;14.472;2022-08-19T09:08:43;4.10;;;2.45;;
9821;SDS011;4950;46.042;14.472;2022-08-19T09:11:16;4.68;;;2.33;;
9821;SDS011;4950;46.042;14.472;2022-08-19T09:13:52;5.07;;;2.38;;
9821;SDS011;4950;46.042;14.472;2022-08-19T09:16:34;8.30;;;2.60;;
9821;SDS011;4950;46.042;14.472;2022-08-19T09:19:02;4.82;;;2.40;;
9821;SDS011;4950;46.042;14.472;2022-08-19T09:21:30;5.18;;;2.53;;
9821;SDS011;4950;46.042;14.472;2022-08-19T09:23:57;5.53;;;2.20;;
9821;SDS011;4950;46.042;14.472;2022-08-19T09:26:24;3.85;;;2.17;;
9821;SDS011;4950;46.042;14.472;2022-08-19T09:28:52;3.75;;;2.20;;
9821;SDS011;4950;46.042;14.472;2022-08-19T09:31:20;3.55;;;2.00;;
9821;SDS011;4950;46.042;14.472;2022-08-19T09:33:51;5.40;;;1.92;;
9821;SDS011;4950;46.042;14.472;2022-08-19T09:36:23;3.03;;;1.65;;
9821;SDS011;4950;46.042;14.472;2022-08-19T09:38:51;4.65;;;2.05;;
9821;SDS011;4950;46.042;14.472;2022-08-19T09:41:19;4.00;;;1.90;;
9821;SDS011;4950;46.042;14.472;2022-08-19T09:43:48;5.22;;;2.13;;
9821;SDS011;4950;46.042;14.472;2022-08-19T09:46:20;3.65;;;1.77;;
9821;SDS011;4950;46.042;14.472;2022-08-19T09:48:48;2.55;;;1.50;;
9821;SDS011;4950;46.042;14.472;2022-08-19T09:51:18;4.80;;;1.75;;
9821;SDS011;4950;46.042;14.472;2022-08-19T09:53:47;4.00;;;1.90;;
9821;SDS011;4950;46.042;14.472;2022-08-19T09:56:17;4.30;;;2.13;;
9821;SDS011;4950;46.042;14.472;2022-08-19T09:58:44;5.47;;;1.95;;
9821;SDS011;4950;46.042;14.472;2022-08-19T10:01:15;5.63;;;1.70;;
9821;SDS011;4950;46.042;14.472;2022-08-19T10:03:46;5.47;;;1.90;;
9821;SDS011;4950;46.042;14.472;2022-08-19T10:06:14;3.65;;;1.60;;
9821;SDS011;4950;46.042;14.472;2022-08-19T10:08:41;4.82;;;2.13;;
9821;SDS011;4950;46.042;14.472;2022-08-19T10:11:07;5.30;;;1.65;;
9821;SDS011;4950;46.042;14.472;2022-08-19T10:13:35;3.28;;;1.77;;
9821;SDS011;4950;46.042;14.472;2022-08-19T10:16:03;2.80;;;1.60;;
9821;SDS011;4950;46.042;14.472;2022-08-19T10:18:32;5.07;;;1.92;;
9821;SDS011;4950;46.042;14.472;2022-08-19T10:21:04;6.78;;;2.05;;
9821;SDS011;4950;46.042;14.472;2022-08-19T10:23:36;3.72;;;1.80;;
9821;SDS011;4950;46.042;14.472;2022-08-19T10:26:05;4.13;;;1.60;;
9821;SDS011;4950;46.042;14.472;2022-08-19T10:28:32;4.90;;;2.00;;
9821;SDS011;4950;46.042;14.472;2022-08-19T10:31:05;3.60;;;1.73;;
9821;SDS011;4950;46.042;14.472;2022-08-19T10:33:33;3.95;;;2.00;;
9821;SDS011;4950;46.042;14.472;2022-08-19T10:36:00;5.03;;;1.92;;
9821;SDS011;4950;46.042;14.472;2022-08-19T10:38:27;3.55;;;1.70;;
9821;SDS011;4950;46.042;14.472;2022-08-19T10:40:55;5.38;;;2.13;;
9821;SDS011;4950;46.042;14.472;2022-08-19T10:43:23;4.63;;;2.40;;
9821;SDS011;4950;46.042;14.472;2022-08-19T10:45:53;3.97;;;2.20;;
9821;SDS011;4950;46.042;14.472;2022-08-19T10:48:24;4.30;;;1.92;;
9821;SDS011;4950;46.042;14.472;2022-08-19T10:50:50;5.40;;;2.15;;
9821;SDS011;4950;46.042;14.472;2022-08-19T10:53:43;3.63;;;1.85;;
9821;SDS011;4950;46.042;14.472;2022-08-19T10:56:10;4.80;;;2.10;;
9821;SDS011;4950;46.042;14.472;2022-08-19T10:58:55;5.95;;;2.40;;
9821;SDS011;4950;46.042;14.472;2022-08-19T11:01:23;6.93;;;2.10;;
9821;SDS011;4950;46.042;14.472;2022-08-19T11:03:49;5.43;;;2.03;;
9821;SDS011;4950;46.042;14.472;2022-08-19T11:06:16;5.30;;;2.28;;
9821;SDS011;4950;46.042;14.472;2022-08-19T11:08:44;4.18;;;2.13;;
9821;SDS011;4950;46.042;14.472;2022-08-19T11:11:11;4.47;;;2.45;;
9821;SDS011;4950;46.042;14.472;2022-08-19T11:13:39;3.70;;;1.98;;
9821;SDS011;4950;46.042;14.472;2022-08-19T11:16:11;4.78;;;2.33;;
9821;SDS011;4950;46.042;14.472;2022-08-19T11:18:40;4.68;;;2.20;;
9821;SDS011;4950;46.042;14.472;2022-08-19T11:21:10;6.75;;;2.50;;
9821;SDS011;4950;46.042;14.472;2022-08-19T11:23:39;5.20;;;2.58;;
9821;SDS011;4950;46.042;14.472;2022-08-19T11:26:06;7.40;;;2.38;;
9821;SDS011;4950;46.042;14.472;2022-08-19T11:28:33;8.90;;;2.50;;
9821;SDS011;4950;46.042;14.472;2022-08-19T11:31:00;7.10;;;2.70;;
9821;SDS011;4950;46.042;14.472;2022-08-19T11:33:30;10.32;;;2.78;;
9821;SDS011;4950;46.042;14.472;2022-08-19T11:35:58;5.32;;;2.53;;
9821;SDS011;4950;46.042;14.472;2022-08-19T11:38:26;5.00;;;2.40;;
9821;SDS011;4950;46.042;14.472;2022-08-19T11:40:54;5.10;;;2.10;;
9821;SDS011;4950;46.042;14.472;2022-08-19T11:43:21;6.43;;;2.20;;
9821;SDS011;4950;46.042;14.472;2022-08-19T11:45:48;5.15;;;2.55;;
9821;SDS011;4950;46.042;14.472;2022-08-19T11:48:15;7.15;;;2.83;;
9821;SDS011;4950;46.042;14.472;2022-08-19T11:50:43;8.80;;;2.80;;
9821;SDS011;4950;46.042;14.472;2022-08-19T11:53:10;8.93;;;2.28;;
9821;SDS011;4950;46.042;14.472;2022-08-19T11:55:37;6.32;;;2.85;;
9821;SDS011;4950;46.042;14.472;2022-08-19T11:58:05;6.93;;;2.22;;
9821;SDS011;4950;46.042;14.472;2022-08-19T12:00:32;7.32;;;3.00;;
9821;SDS011;4950;46.042;14.472;2022-08-19T12:03:00;5.38;;;2.38;;
9821;SDS011;4950;46.042;14.472;2022-08-19T12:05:27;6.70;;;2.30;;
9821;SDS011;4950;46.042;14.472;2022-08-19T12:07:55;6.03;;;2.42;;
9821;SDS011;4950;46.042;14.472;2022-08-19T12:10:22;6.63;;;2.40;;
9821;SDS011;4950;46.042;14.472;2022-08-19T12:12:49;6.53;;;2.47;;
9821;SDS011;4950;46.042;14.472;2022-08-19T12:15:17;7.50;;;2.53;;
9821;SDS011;4950;46.042;14.472;2022-08-19T12:17:43;6.15;;;2.53;;
9821;SDS011;4950;46.042;14.472;2022-08-19T12:20:10;5.25;;;2.65;;
9821;SDS011;4950;46.042;14.472;2022-08-19T12:22:40;8.60;;;3.10;;
9821;SDS011;4950;46.042;14.472;2022-08-19T12:25:10;7.10;;;2.78;;
9821;SDS011;4950;46.042;14.472;2022-08-19T12:27:38;10.25;;;3.15;;
9821;SDS011;4950;46.042;14.472;2022-08-19T12:30:06;7.82;;;3.05;;
9821;SDS011;4950;46.042;14.472;2022-08-19T12:32:35;7.93;;;2.63;;
9821;SDS011;4950;46.042;14.472;2022-08-19T12:35:02;12.60;;;3.13;;
9821;SDS011;4950;46.042;14.472;2022-08-19T12:37:29;5.65;;;2.53;;
9821;SDS011;4950;46.042;14.472;2022-08-19T12:39:57;8.75;;;3.38;;
9821;SDS011;4950;46.042;14.472;2022-08-19T12:42:25;9.80;;;3.42;;
9821;SDS011;4950;46.042;14.472;2022-08-19T12:44:51;7.70;;;3.85;;
9821;SDS011;4950;46.042;14.472;2022-08-19T12:47:18;8.70;;;3.55;;
9821;SDS011;4950;46.042;14.472;2022-08-19T12:49:46;7.65;;;3.58;;
9821;SDS011;4950;46.042;14.472;2022-08-19T12:52:12;6.57;;;3.40;;
9821;SDS011;4950;46.042;14.472;2022-08-19T12:54:40;6.97;;;2.92;;
9821;SDS011;4950;46.042;14.472;2022-08-19T12:57:09;9.10;;;3.40;;
9821;SDS011;4950;46.042;14.472;2022-08-19T12:59:38;5.93;;;2.92;;
9821;SDS011;4950;46.042;14.472;2022-08-19T13:02:07;6.28;;;3.13;;
9821;SDS011;4950;46.042;14.472;2022-08-19T13:04:34;5.47;;;3.00;;
9821;SDS011;4950;46.042;14.472;2022-08-19T13:07:05;4.93;;;2.65;;
9821;SDS011;4950;46.042;14.472;2022-08-19T13:09:33;6.43;;;2.95;;
9821;SDS011;4950;46.042;14.472;2022-08-19T13:11:59;7.63;;;2.97;;
9821;SDS011;4950;46.042;14.472;2022-08-19T13:14:27;3.90;;;2.20;;
9821;SDS011;4950;46.042;14.472;2022-08-19T13:16:57;5.68;;;2.50;;
9821;SDS011;4950;46.042;14.472;2022-08-19T13:19:24;5.05;;;2.60;;
9821;SDS011;4950;46.042;14.472;2022-08-19T13:21:51;5.65;;;2.50;;
9821;SDS011;4950;46.042;14.472;2022-08-19T13:24:20;6.22;;;2.60;;
9821;SDS011;4950;46.042;14.472;2022-08-19T13:26:47;7.18;;;2.55;;
9821;SDS011;4950;46.042;14.472;2022-08-19T13:29:13;6.78;;;3.08;;
9821;SDS011;4950;46.042;14.472;2022-08-19T13:31:59;4.32;;;2.13;;
9821;SDS011;4950;46.042;14.472;2022-08-19T13:34:43;4.80;;;2.00;;
9821;SDS011;4950;46.042;14.472;2022-08-19T13:37:11;5.93;;;1.83;;
9821;SDS011;4950;46.042;14.472;2022-08-19T13:39:38;3.90;;;1.70;;
9821;SDS011;4950;46.042;14.472;2022-08-19T13:42:05;2.90;;;1.40;;
9821;SDS011;4950;46.042;14.472;2022-08-19T13:44:34;2.92;;;1.30;;
9821;SDS011;4950;46.042;14.472;2022-08-19T13:47:03;3.85;;;1.60;;
9821;SDS011;4950;46.042;14.472;2022-08-19T13:49:32;3.30;;;1.40;;
9821;SDS011;4950;46.042;14.472;2022-08-19T13:52:00;3.22;;;1.40;;
9821;SDS011;4950;46.042;14.472;2022-08-19T13:54:27;2.70;;;1.50;;
9821;SDS011;4950;46.042;14.472;2022-08-19T13:56:54;1.85;;;1.30;;
9821;SDS011;4950;46.042;14.472;2022-08-19T13:59:21;3.63;;;1.80;;
9821;SDS011;4950;46.042;14.472;2022-08-19T14:01:48;3.22;;;1.90;;
9821;SDS011;4950;46.042;14.472;2022-08-19T14:04:16;5.05;;;1.98;;
9821;SDS011;4950;46.042;14.472;2022-08-19T14:06:42;5.45;;;1.92;;
9821;SDS011;4950;46.042;14.472;2022-08-19T14:09:09;4.10;;;2.38;;
9821;SDS011;4950;46.042;14.472;2022-08-19T14:11:36;3.33;;;2.03;;
9821;SDS011;4950;46.042;14.472;2022-08-19T14:14:03;5.85;;;2.10;;
9821;SDS011;4950;46.042;14.472;2022-08-19T14:16:29;4.57;;;2.15;;
9821;SDS011;4950;46.042;14.472;2022-08-19T14:18:56;4.95;;;2.58;;
9821;SDS011;4950;46.042;14.472;2022-08-19T14:21:24;5.20;;;2.40;;
9821;SDS011;4950;46.042;14.472;2022-08-19T14:23:51;3.88;;;2.15;;
9821;SDS011;4950;46.042;14.472;2022-08-19T14:26:19;6.30;;;2.08;;
9821;SDS011;4950;46.042;14.472;2022-08-19T14:28:46;4.18;;;1.95;;
9821;SDS011;4950;46.042;14.472;2022-08-19T14:31:15;4.60;;;2.03;;
9821;SDS011;4950;46.042;14.472;2022-08-19T14:33:44;4.38;;;2.15;;
9821;SDS011;4950;46.042;14.472;2022-08-19T14:36:10;5.63;;;1.83;;
9821;SDS011;4950;46.042;14.472;2022-08-19T14:38:38;4.72;;;2.30;;
9821;SDS011;4950;46.042;14.472;2022-08-19T14:41:10;3.25;;;1.88;;
9821;SDS011;4950;46.042;14.472;2022-08-19T14:43:41;5.32;;;1.98;;
9821;SDS011;4950;46.042;14.472;2022-08-19T14:46:11;4.78;;;1.88;;
9821;SDS011;4950;46.042;14.472;2022-08-19T14:48:38;4.75;;;1.90;;
9821;SDS011;4950;46.042;14.472;2022-08-19T14:51:05;3.58;;;1.52;;
9821;SDS011;4950;46.042;14.472;2022-08-19T14:53:32;5.43;;;2.00;;
9821;SDS011;4950;46.042;14.472;2022-08-19T14:56:01;4.22;;;1.50;;
9821;SDS011;4950;46.042;14.472;2022-08-19T14:58:28;4.00;;;1.83;;
9821;SDS011;4950;46.042;14.472;2022-08-19T15:00:56;6.03;;;1.90;;
9821;SDS011;4950;46.042;14.472;2022-08-19T15:03:24;5.30;;;2.13;;
9821;SDS011;4950;46.042;14.472;2022-08-19T15:05:52;6.85;;;2.30;;
9821;SDS011;4950;46.042;14.472;2022-08-19T15:08:18;4.45;;;2.30;;